Time;durP1;ratioP1;P1;durP2;ratioP2;P2;SDS_P1;SDS_P2;PMS_P1;PMS_P2;Temp;Humidity;BMP_temperature;BMP_pressure;BME280_temperature;BME280_humidity;BME280_pressure;Samples;Min_cycle;Max_cycle;Signal;HPM_P1;HPM_P2
2022/07/10 00:00:36;;;;;;;13.10;7.78;;;;;;;16.41;100.00;99521.33;1712473;83;21097;-71
2022/07/10 00:03:03;;;;;;;12.85;7.80;;;;;;;16.38;100.00;99520.22;1712986;83;21109;-71
2022/07/10 00:05:31;;;;;;;11.08;7.67;;;;;;;16.38;100.00;99512.25;1687175;82;21049;-71
2022/07/10 00:07:58;;;;;;;10.00;7.30;;;;;;;16.37;100.00;99513.19;1683096;85;21560;-71
2022/07/10 00:10:25;;;;;;;12.33;6.85;;;;;;;16.36;100.00;99514.16;1682682;85;21117;-70
2022/07/10 00:12:52;;;;;;;12.65;7.67;;;;;;;16.35;100.00;99512.45;1682861;85;21065;-70
2022/07/10 00:15:19;;;;;;;14.18;7.53;;;;;;;16.36;100.00;99516.82;1682827;84;21156;-70
2022/07/10 00:17:46;;;;;;;12.75;8.10;;;;;;;16.34;100.00;99517.41;1683204;84;21030;-71
2022/07/10 00:20:14;;;;;;;14.65;8.33;;;;;;;16.30;100.00;99516.76;1682870;85;21054;-72
2022/07/10 00:22:41;;;;;;;15.15;8.30;;;;;;;16.28;100.00;99518.67;1683358;84;21108;-70
2022/07/10 00:25:10;;;;;;;12.00;7.75;;;;;;;16.23;100.00;99521.30;1682697;84;21113;-70
2022/07/10 00:27:38;;;;;;;13.70;8.53;;;;;;;16.18;100.00;99509.66;1683216;85;21175;-70
2022/07/10 00:30:07;;;;;;;11.97;7.37;;;;;;;16.16;100.00;99512.91;1682566;85;21102;-70
2022/07/10 00:32:33;;;;;;;11.05;8.40;;;;;;;16.14;100.00;99513.00;1682767;85;21070;-71
2022/07/10 00:35:01;;;;;;;12.53;8.45;;;;;;;16.13;100.00;99511.31;1694925;83;21069;-70
2022/07/10 00:37:29;;;;;;;10.90;7.33;;;;;;;16.09;100.00;99512.47;1712990;83;21053;-71
2022/07/10 00:39:55;;;;;;;12.70;7.33;;;;;;;16.03;100.00;99514.70;1713055;83;21767;-72
2022/07/10 00:42:24;;;;;;;10.10;7.55;;;;;;;15.99;100.00;99511.43;1712901;82;21539;-71
2022/07/10 00:44:51;;;;;;;8.55;6.50;;;;;;;15.92;100.00;99500.86;1701613;83;21026;-70
2022/07/10 00:47:19;;;;;;;10.38;7.50;;;;;;;15.86;100.00;99506.59;1708298;83;21077;-69
2022/07/10 00:49:47;;;;;;;15.00;7.60;;;;;;;15.81;100.00;99506.06;1697915;82;21059;-70
2022/07/10 00:52:16;;;;;;;13.88;8.68;;;;;;;15.71;100.00;99508.02;1683131;84;21345;-71
2022/07/10 00:54:50;;;;;;;11.83;8.48;;;;;;;15.64;100.00;99501.84;1709629;83;21662;-69
2022/07/10 00:57:16;;;;;;;16.55;8.35;;;;;;;15.55;100.00;99492.70;1712943;82;21586;-70
2022/07/10 00:59:46;;;;;;;12.80;8.93;;;;;;;15.47;100.00;99495.04;1713185;83;21036;-70
2022/07/10 01:02:13;;;;;;;10.23;7.40;;;;;;;15.41;100.00;99488.81;1712826;82;21060;-71
2022/07/10 01:04:41;;;;;;;12.90;8.08;;;;;;;15.38;100.00;99489.03;1703035;82;21579;-70
2022/07/10 01:07:08;;;;;;;16.20;8.70;;;;;;;15.37;100.00;99484.20;1682966;85;21034;-70
2022/07/10 01:09:34;;;;;;;8.80;7.58;;;;;;;15.35;100.00;99475.49;1682991;85;21054;-69
2022/07/10 01:12:03;;;;;;;11.50;8.18;;;;;;;15.35;100.00;99478.14;1682850;84;21050;-70
2022/07/10 01:14:30;;;;;;;14.18;8.45;;;;;;;15.34;100.00;99474.26;1683368;85;21090;-70
2022/07/10 01:16:58;;;;;;;13.03;7.65;;;;;;;15.31;100.00;99470.86;1682941;85;21154;-70
2022/07/10 01:19:25;;;;;;;18.62;8.73;;;;;;;15.31;100.00;99472.19;1649071;86;21164;-70
2022/07/10 01:21:52;;;;;;;12.78;8.03;;;;;;;15.29;100.00;99472.76;1649554;87;21057;-69
2022/07/10 01:24:19;;;;;;;14.47;9.08;;;;;;;15.28;100.00;99468.91;1649729;86;21097;-70
2022/07/10 01:26:46;;;;;;;15.32;9.95;;;;;;;15.27;100.00;99465.38;1684473;84;21097;-70
2022/07/10 01:29:13;;;;;;;10.25;8.38;;;;;;;15.26;100.00;99462.36;1742645;82;21117;-71
2022/07/10 01:31:40;;;;;;;16.00;9.13;;;;;;;15.25;100.00;99455.38;1754412;81;21069;-69
2022/07/10 01:34:13;;;;;;;10.75;8.10;;;;;;;15.27;100.00;99463.20;1755850;81;21049;-68
2022/07/10 01:36:37;;;;;;;12.20;9.05;;;;;;;15.29;100.00;99466.13;1755466;81;21041;-69
2022/07/10 01:39:05;;;;;;;11.80;9.10;;;;;;;15.29;100.00;99458.17;1719748;83;21096;-71
2022/07/10 01:41:33;;;;;;;20.90;8.08;;;;;;;15.33;100.00;99456.66;1719697;83;21961;-69
2022/07/10 01:43:59;;;;;;;16.52;8.88;;;;;;;15.31;100.00;99450.96;1720192;83;21537;-71
2022/07/10 01:46:26;;;;;;;11.18;8.68;;;;;;;15.34;100.00;99451.23;1719640;83;21072;-71
2022/07/10 01:48:53;;;;;;;10.05;8.55;;;;;;;15.35;100.00;99448.97;1719614;83;21089;-71
2022/07/10 01:51:20;;;;;;;12.82;7.65;;;;;;;15.36;100.00;99444.50;1719608;83;21001;-69
2022/07/10 01:53:46;;;;;;;16.85;8.03;;;;;;;15.36;100.00;99443.17;1705627;83;21114;-69
2022/07/10 01:56:13;;;;;;;12.00;7.75;;;;;;;15.34;100.00;99441.94;1690766;84;21084;-70
2022/07/10 01:58:41;;;;;;;12.13;8.88;;;;;;;15.29;100.00;99433.45;1691004;84;21932;-70
2022/07/10 02:01:08;;;;;;;13.72;8.15;;;;;;;15.30;100.00;99434.69;1690634;84;21018;-70
2022/07/10 02:06:20;;;;;;;11.40;8.40;;;;;;;15.27;100.00;99436.20;1691102;84;21530;-70
2022/07/10 02:08:46;;;;;;;15.98;8.70;;;;;;;15.28;100.00;99436.59;1690963;84;21040;-69
2022/07/10 02:11:13;;;;;;;13.48;8.60;;;;;;;15.29;100.00;99438.27;1690994;84;21103;-71
2022/07/10 02:13:40;;;;;;;10.35;8.13;;;;;;;15.28;100.00;99437.91;1691171;84;21017;-70
2022/07/10 02:16:08;;;;;;;12.05;8.05;;;;;;;15.28;100.00;99443.22;1673471;85;21514;-71
2022/07/10 02:18:35;;;;;;;12.90;8.20;;;;;;;15.29;100.00;99432.97;1661895;86;21752;-70
2022/07/10 02:21:02;;;;;;;12.73;7.45;;;;;;;15.31;100.00;99441.67;1673700;85;21054;-70
2022/07/10 02:23:28;;;;;;;14.80;8.55;;;;;;;15.34;100.00;99435.80;1662122;86;21104;-70
2022/07/10 02:25:55;;;;;;;11.80;8.00;;;;;;;15.38;100.00;99433.31;1673670;85;21105;-70
2022/07/10 02:28:22;;;;;;;11.15;8.18;;;;;;;15.40;100.00;99443.34;1650473;85;21085;-70
2022/07/10 02:30:49;;;;;;;8.50;7.58;;;;;;;15.39;100.00;99442.50;1659719;86;21320;-69
2022/07/10 02:33:15;;;;;;;10.63;7.33;;;;;;;15.38;100.00;99439.94;1720849;83;21072;-70
2022/07/10 02:35:42;;;;;;;12.93;8.10;;;;;;;15.38;100.00;99443.92;1720931;83;21045;-69
2022/07/10 02:38:09;;;;;;;12.25;7.08;;;;;;;15.40;100.00;99447.33;1720859;83;21053;-69
2022/07/10 02:40:35;;;;;;;11.48;6.53;;;;;;;15.41;100.00;99445.03;1720622;83;21053;-69
2022/07/10 02:43:02;;;;;;;10.08;7.20;;;;;;;15.40;100.00;99438.04;1720982;83;21858;-70
2022/07/10 02:45:28;;;;;;;12.00;7.08;;;;;;;15.40;100.00;99440.69;1716854;83;21097;-70
2022/07/10 02:47:55;;;;;;;11.80;7.83;;;;;;;15.43;100.00;99439.15;1691848;84;21016;-70
2022/07/10 02:50:22;;;;;;;10.80;7.30;;;;;;;15.44;100.00;99430.25;1720522;83;21057;-70
2022/07/10 02:52:48;;;;;;;11.25;6.83;;;;;;;15.45;100.00;99431.94;1720665;83;21109;-70
2022/07/10 02:55:15;;;;;;;8.43;7.37;;;;;;;15.47;100.00;99430.03;1720811;83;21190;-69
2022/07/10 02:57:42;;;;;;;8.38;7.00;;;;;;;15.48;100.00;99425.95;1720637;83;21054;-70
2022/07/10 03:00:11;;;;;;;9.83;7.37;;;;;;;15.49;100.00;99426.80;1720908;83;21039;-70
2022/07/10 03:02:38;;;;;;;11.30;7.60;;;;;;;15.51;100.00;99421.76;1720633;82;21098;-70
2022/07/10 03:05:07;;;;;;;11.28;6.50;;;;;;;15.53;100.00;99422.98;1720833;83;21062;-70
2022/07/10 03:07:34;;;;;;;8.78;6.70;;;;;;;15.56;100.00;99421.44;1720744;82;21123;-69
2022/07/10 03:10:00;;;;;;;9.53;6.30;;;;;;;15.61;100.00;99427.27;1698788;83;21097;-69
2022/07/10 03:12:27;;;;;;;10.90;6.65;;;;;;;15.67;100.00;99431.33;1690525;84;21057;-69
2022/07/10 03:14:54;;;;;;;7.67;6.17;;;;;;;15.73;100.00;99423.82;1690392;84;21120;-71
2022/07/10 03:17:21;;;;;;;6.33;5.65;;;;;;;15.81;100.00;99421.10;1718851;83;21056;-71
2022/07/10 03:19:47;;;;;;;9.03;6.30;;;;;;;15.90;100.00;99416.48;1721256;83;21073;-70
2022/07/10 03:22:14;;;;;;;6.72;5.92;;;;;;;15.99;100.00;99419.81;1720510;83;21506;-70
2022/07/10 03:24:43;;;;;;;6.85;5.62;;;;;;;16.09;100.00;99422.17;1721008;83;20993;-70
2022/07/10 03:27:09;;;;;;;8.48;5.78;;;;;;;16.20;100.00;99420.57;1720630;83;21042;-70
2022/07/10 03:29:36;;;;;;;7.42;5.50;;;;;;;16.29;100.00;99422.56;1720757;83;21136;-71
2022/07/10 03:32:04;;;;;;;7.55;4.85;;;;;;;16.38;100.00;99425.89;1714652;83;21229;-71
2022/07/10 03:34:32;;;;;;;8.20;4.62;;;;;;;16.50;100.00;99428.98;1713490;83;21144;-71
2022/07/10 03:37:00;;;;;;;8.35;4.70;;;;;;;16.61;100.00;99425.55;1713210;83;21081;-70
2022/07/10 03:39:28;;;;;;;5.45;4.35;;;;;;;16.74;100.00;99431.63;1713477;83;21340;-69
2022/07/10 03:41:54;;;;;;;5.65;4.35;;;;;;;16.90;100.00;99428.72;1713204;83;21070;-70
2022/07/10 03:44:21;;;;;;;7.55;4.72;;;;;;;17.06;100.00;99434.23;1713500;82;21732;-72
2022/07/10 03:46:47;;;;;;;5.40;4.10;;;;;;;17.20;100.00;99424.23;1713163;83;21030;-70
2022/07/10 03:49:14;;;;;;;4.78;3.80;;;;;;;17.34;100.00;99425.01;1713224;82;21046;-71
2022/07/10 03:51:40;;;;;;;5.58;3.55;;;;;;;17.48;100.00;99427.95;1712788;83;21061;-71
2022/07/10 03:54:07;;;;;;;5.35;3.70;;;;;;;17.63;100.00;99424.11;1713094;82;21532;-72
2022/07/10 03:59:19;;;;;;;4.25;3.30;;;;;;;17.95;100.00;99430.11;1713069;83;21063;-71
2022/07/10 04:01:45;;;;;;;4.85;3.22;;;;;;;18.14;100.00;99428.16;1713237;82;21067;-70
2022/07/10 04:04:14;;;;;;;7.33;3.72;;;;;;;18.30;100.00;99427.78;1713240;83;21063;-71
2022/07/10 04:06:40;;;;;;;3.45;2.87;;;;;;;18.47;100.00;99420.59;1712806;82;21012;-72
2022/07/10 04:09:07;;;;;;;8.03;3.80;;;;;;;18.62;100.00;99425.17;1712974;83;21264;-69
2022/07/10 04:11:35;;;;;;;11.00;3.02;;;;;;;18.78;100.00;99427.47;1712759;82;21595;-70
2022/07/10 04:14:02;;;;;;;4.95;3.45;;;;;;;18.96;100.00;99421.10;1713072;83;21067;-70
2022/07/10 04:16:29;;;;;;;8.68;3.35;;;;;;;19.15;100.00;99421.73;1713015;83;21095;-71
2022/07/10 04:18:55;;;;;;;4.47;2.47;;;;;;;19.32;100.00;99417.14;1713151;82;21067;-71
2022/07/10 04:21:22;;;;;;;4.12;2.75;;;;;;;19.48;100.00;99420.69;1712924;83;21226;-71
2022/07/10 04:23:49;;;;;;;5.25;2.58;;;;;;;19.67;100.00;99411.97;1712814;83;21035;-70
2022/07/10 04:26:18;;;;;;;6.00;2.90;;;;;;;19.88;100.00;99409.29;1713202;83;21031;-70
2022/07/10 04:28:46;;;;;;;4.03;2.80;;;;;;;20.08;100.00;99412.87;1713194;82;21044;-70
2022/07/10 04:31:13;;;;;;;4.67;2.30;;;;;;;20.23;100.00;99419.55;1712915;82;21562;-71
2022/07/10 04:33:44;;;;;;;4.60;2.52;;;;;;;20.38;100.00;99408.45;1713084;82;21086;-70
2022/07/10 04:36:11;;;;;;;4.40;2.60;;;;;;;20.53;99.73;99409.77;1712835;83;21028;-70
2022/07/10 04:38:42;;;;;;;5.03;2.42;;;;;;;20.70;98.24;99410.44;1713103;82;21079;-69
2022/07/10 04:41:08;;;;;;;3.90;2.55;;;;;;;20.89;96.91;99410.97;1712819;83;21028;-70
2022/07/10 04:43:36;;;;;;;3.75;2.27;;;;;;;21.06;96.18;99413.42;1712846;83;21071;-70
2022/07/10 04:46:03;;;;;;;4.67;3.20;;;;;;;21.29;95.70;99415.81;1712978;83;22208;-70
2022/07/10 04:48:29;;;;;;;8.30;2.87;;;;;;;21.46;93.74;99411.58;1713133;82;21075;-70
2022/07/10 04:50:57;;;;;;;4.10;3.00;;;;;;;21.61;91.65;99418.69;1712883;83;21039;-71
2022/07/10 04:53:24;;;;;;;3.02;2.70;;;;;;;21.74;91.50;99414.70;1713064;83;21089;-71
2022/07/10 04:55:51;;;;;;;4.08;3.05;;;;;;;21.90;90.69;99418.57;1678442;85;21116;-70
2022/07/10 04:58:18;;;;;;;7.10;2.77;;;;;;;22.08;88.57;99421.33;1713004;83;21100;-71
2022/07/10 05:00:44;;;;;;;5.50;2.70;;;;;;;22.26;88.37;99418.24;1678039;85;21104;-70
2022/07/10 05:03:11;;;;;;;8.73;3.17;;;;;;;22.48;87.40;99417.51;1712672;83;21081;-70
2022/07/10 05:05:37;;;;;;;4.40;3.20;;;;;;;22.70;85.63;99417.55;1678329;85;21116;-72
2022/07/10 05:08:04;;;;;;;7.30;2.90;;;;;;;22.90;84.67;99418.27;1712731;83;21088;-71
2022/07/10 05:10:31;;;;;;;6.22;2.80;;;;;;;23.08;82.82;99419.14;1678160;85;21902;-72
2022/07/10 05:12:58;;;;;;;4.97;2.95;;;;;;;23.20;83.26;99413.86;1678146;85;21084;-71
2022/07/10 05:15:25;;;;;;;6.28;3.25;;;;;;;23.48;81.72;99416.42;1713120;83;21070;-71
2022/07/10 05:17:52;;;;;;;4.33;3.15;;;;;;;23.70;79.77;99426.33;1678370;85;21108;-72
2022/07/10 05:20:18;;;;;;;3.77;2.80;;;;;;;23.85;79.37;99420.72;1712897;83;21328;-72
2022/07/10 05:22:45;;;;;;;3.85;2.60;;;;;;;23.99;76.87;99418.77;1678353;85;21145;-71
2022/07/10 05:25:12;;;;;;;7.30;3.02;;;;;;;24.10;76.59;99418.17;1712949;83;21038;-72
2022/07/10 05:27:39;;;;;;;5.35;2.92;;;;;;;24.22;76.06;99415.02;1678395;85;21158;-72
2022/07/10 05:30:07;;;;;;;3.90;2.70;;;;;;;24.40;76.29;99414.91;1712903;83;21038;-72
2022/07/10 05:32:34;;;;;;;5.62;2.92;;;;;;;24.68;74.37;99410.14;1678515;85;21036;-72
2022/07/10 05:35:00;;;;;;;5.35;2.98;;;;;;;24.80;73.10;99410.69;1713267;83;21847;-71
2022/07/10 05:37:27;;;;;;;7.30;2.92;;;;;;;24.82;73.64;99405.95;1678851;85;21053;-72
2022/07/10 05:39:53;;;;;;;7.37;3.60;;;;;;;25.01;72.94;99403.98;1712939;83;21108;-73
2022/07/10 05:42:19;;;;;;;4.75;3.10;;;;;;;25.21;72.28;99409.38;1678417;85;21561;-72
2022/07/10 05:44:46;;;;;;;4.22;3.00;;;;;;;25.40;70.62;99403.30;1712690;83;21574;-72
2022/07/10 05:47:13;;;;;;;5.42;3.35;;;;;;;25.53;70.83;99403.12;1666683;85;21183;-72
2022/07/10 05:49:39;;;;;;;4.95;3.00;;;;;;;25.82;69.86;99403.59;1653486;85;21573;-73
2022/07/10 05:52:06;;;;;;;4.22;2.72;;;;;;;26.06;68.99;99394.08;1649706;86;21533;-71
2022/07/10 05:54:34;;;;;;;6.37;2.90;;;;;;;26.24;65.46;99394.36;1667179;85;21065;-72
2022/07/10 05:57:01;;;;;;;7.30;2.95;;;;;;;26.21;66.20;99398.77;1678442;85;21604;-73
2022/07/10 05:59:28;;;;;;;7.08;2.92;;;;;;;26.20;66.96;99405.16;1678343;85;21159;-72
2022/07/10 06:01:54;;;;;;;3.65;2.40;;;;;;;26.29;65.92;99396.02;1678411;84;21112;-72
2022/07/10 06:04:21;;;;;;;9.35;2.70;;;;;;;26.47;66.14;99391.19;1678715;85;21131;-72
2022/07/10 06:06:47;;;;;;;4.87;2.65;;;;;;;26.64;66.27;99389.77;1678214;85;21085;-73
2022/07/10 06:09:14;;;;;;;5.08;2.85;;;;;;;26.91;65.48;99393.30;1678342;85;21064;-73
2022/07/10 06:11:41;;;;;;;5.22;2.75;;;;;;;27.09;64.26;99386.75;1678072;85;21867;-71
2022/07/10 06:14:09;;;;;;;6.12;2.42;;;;;;;27.15;64.22;99385.52;1678239;85;21060;-73
2022/07/10 06:16:35;;;;;;;5.22;2.40;;;;;;;27.25;63.21;99390.70;1678263;85;21052;-73
2022/07/10 06:19:02;;;;;;;4.03;2.50;;;;;;;27.34;62.51;99382.84;1678176;85;21072;-72
2022/07/10 06:21:31;;;;;;;2.25;2.05;;;;;;;27.59;62.54;99385.31;1678441;85;21092;-72
2022/07/10 06:23:58;;;;;;;3.95;2.35;;;;;;;27.82;60.44;99388.77;1678344;85;21133;-73
2022/07/10 06:26:25;;;;;;;4.85;2.20;;;;;;;28.11;59.57;99382.20;1678236;85;21056;-72
2022/07/10 06:28:52;;;;;;;3.30;2.20;;;;;;;28.44;59.29;99378.56;1678134;85;21061;-72
2022/07/10 06:31:19;;;;;;;3.17;2.00;;;;;;;28.55;57.94;99376.75;1678618;85;21096;-74
2022/07/10 06:33:46;;;;;;;5.12;2.27;;;;;;;28.69;57.89;99378.22;1686758;85;21074;-71
2022/07/10 06:36:12;;;;;;;2.40;2.00;;;;;;;28.93;57.57;99376.49;1666067;85;21129;-73
2022/07/10 06:38:41;;;;;;;2.42;1.67;;;;;;;29.16;56.61;99374.13;1660657;86;21119;-72
2022/07/10 06:41:11;;;;;;;5.47;2.12;;;;;;;29.26;55.48;99366.48;1660848;86;21079;-74
2022/07/10 06:43:40;;;;;;;4.10;2.05;;;;;;;29.25;55.66;99367.53;1632028;87;21543;-72
2022/07/10 06:46:06;;;;;;;4.03;2.10;;;;;;;29.30;55.39;99363.70;1697344;83;21636;-72
2022/07/10 06:48:33;;;;;;;3.17;1.80;;;;;;;29.53;54.72;99373.47;1676694;85;21137;-71
2022/07/10 06:51:00;;;;;;;4.72;2.15;;;;;;;29.62;53.76;99358.72;1651362;85;21490;-72
2022/07/10 06:53:27;;;;;;;2.10;1.90;;;;;;;29.68;54.15;99354.72;1694328;83;21090;-73
2022/07/10 06:55:54;;;;;;;15.35;2.98;;;;;;;29.65;54.75;99355.06;1726258;82;21054;-72
2022/07/10 06:58:20;;;;;;;3.87;1.80;;;;;;;29.79;54.20;99356.54;1725848;83;21034;-73
2022/07/10 07:00:47;;;;;;;3.35;1.95;;;;;;;29.96;52.99;99363.85;1726146;81;21201;-73
2022/07/10 07:03:14;;;;;;;2.98;2.12;;;;;;;30.09;49.48;99362.03;1725921;83;21047;-72
2022/07/10 07:05:41;;;;;;;4.78;1.60;;;;;;;29.93;45.45;99364.23;1725875;83;21010;-71
2022/07/10 07:08:08;;;;;;;3.50;1.92;;;;;;;29.90;45.99;99356.81;1725793;83;21007;-72
2022/07/10 07:10:35;;;;;;;3.62;2.02;;;;;;;29.83;45.76;99357.30;1725905;83;21107;-73
2022/07/10 07:13:02;;;;;;;4.70;2.20;;;;;;;29.66;46.32;99355.93;1725881;83;21261;-72
2022/07/10 07:15:29;;;;;;;4.47;2.10;;;;;;;29.49;46.21;99353.53;1726285;82;21032;-73
2022/07/10 07:17:56;;;;;;;4.97;2.00;;;;;;;29.41;46.19;99353.67;1725936;82;21055;-74
2022/07/10 07:23:11;;;;;;;4.15;2.12;;;;;;;29.13;46.58;99347.42;1725760;83;21556;-75
2022/07/10 07:25:41;;;;;;;2.42;1.90;;;;;;;29.05;46.17;99350.53;1683177;84;21807;-72
2022/07/10 07:28:15;;;;;;;3.20;2.05;;;;;;;29.04;46.29;99348.03;1682187;84;21533;-72
2022/07/10 07:30:42;;;;;;;4.55;1.70;;;;;;;28.99;45.91;99347.80;1657107;86;21059;-73
2022/07/10 07:33:08;;;;;;;7.30;2.47;;;;;;;28.89;45.17;99359.46;1633043;85;22105;-73
2022/07/10 07:35:35;;;;;;;2.50;2.02;;;;;;;28.92;45.96;99351.80;1618896;88;21086;-72
2022/07/10 07:38:02;;;;;;;5.10;2.15;;;;;;;28.93;45.76;99354.81;1619462;87;21204;-74
2022/07/10 07:40:30;;;;;;;6.20;2.30;;;;;;;29.03;45.90;99349.05;1647188;86;21603;-73
2022/07/10 07:42:57;;;;;;;4.45;1.70;;;;;;;29.13;45.37;99344.70;1669640;85;21128;-72
2022/07/10 07:45:24;;;;;;;5.78;2.20;;;;;;;29.16;45.49;99341.59;1671251;85;21054;-72
2022/07/10 07:47:56;;;;;;;5.08;1.90;;;;;;;29.14;46.33;99343.66;1633416;86;21573;-72
2022/07/10 07:50:31;;;;;;;4.95;1.90;;;;;;;29.19;45.83;99350.16;1652273;85;21538;-73
2022/07/10 07:52:54;;;;;;;5.05;1.77;;;;;;;29.51;45.48;99345.70;1671745;85;21085;-73
2022/07/10 07:55:21;;;;;;;2.47;1.65;;;;;;;29.86;44.46;99351.48;1682961;85;21052;-73
2022/07/10 07:57:48;;;;;;;4.53;1.90;;;;;;;30.01;43.44;99347.79;1683324;85;21052;-72
2022/07/10 08:00:18;;;;;;;4.90;2.00;;;;;;;30.02;43.04;99348.09;1682983;83;21056;-74
2022/07/10 08:02:45;;;;;;;2.95;1.90;;;;;;;30.12;42.87;99349.93;1683156;85;21309;-72
2022/07/10 08:05:11;;;;;;;2.92;1.50;;;;;;;30.42;41.39;99338.78;1683098;85;21032;-73
2022/07/10 08:07:40;;;;;;;4.03;1.87;;;;;;;30.63;41.18;99349.48;1665365;85;22183;-73
2022/07/10 08:10:13;;;;;;;3.25;1.50;;;;;;;30.69;38.73;99343.23;1656913;85;21054;-72
2022/07/10 08:12:42;;;;;;;4.90;1.62;;;;;;;30.69;38.73;99343.23;1653361;84;21582;-72
2022/07/10 08:15:10;;;;;;;5.30;1.90;;;;;;;30.79;39.20;99336.55;1677918;84;21787;-72
2022/07/10 08:17:39;;;;;;;3.33;1.82;;;;;;;31.00;38.90;99328.22;1713065;83;21126;-73
2022/07/10 08:20:11;;;;;;;2.45;1.52;;;;;;;31.17;39.40;99334.06;1713234;83;21093;-73
2022/07/10 08:22:37;;;;;;;4.05;2.05;;;;;;;31.20;39.55;99328.73;1711929;82;21376;-73
2022/07/10 08:25:06;;;;;;;3.02;1.50;;;;;;;31.07;39.80;99326.87;1713109;83;21596;-73
2022/07/10 08:27:33;;;;;;;4.33;1.77;;;;;;;30.83;39.47;99335.07;1712586;82;21226;-71
2022/07/10 08:30:00;;;;;;;6.50;1.72;;;;;;;30.63;38.07;99330.46;1709137;83;21109;-73
2022/07/10 08:32:27;;;;;;;5.22;1.70;;;;;;;30.43;39.23;99329.05;1680136;85;21131;-73
2022/07/10 08:34:54;;;;;;;4.08;1.85;;;;;;;30.26;40.10;99326.38;1717220;82;22214;-72
2022/07/10 08:37:20;;;;;;;3.22;1.90;;;;;;;30.38;40.46;99328.01;1676611;85;21064;-72
2022/07/10 08:39:47;;;;;;;2.52;1.67;;;;;;;30.55;40.33;99322.49;1682956;85;21171;-73
2022/07/10 08:42:15;;;;;;;2.35;1.47;;;;;;;30.57;39.40;99323.13;1720508;83;21553;-74
2022/07/10 08:44:42;;;;;;;3.98;1.90;;;;;;;30.45;39.09;99323.42;1702429;83;21045;-73
2022/07/10 08:47:11;;;;;;;3.30;1.82;;;;;;;30.32;39.67;99335.08;1724428;82;21049;-73
2022/07/10 08:49:37;;;;;;;3.20;1.90;;;;;;;30.10;38.75;99338.43;1667243;84;21129;-73
2022/07/10 08:52:12;;;;;;;6.53;2.15;;;;;;;29.41;40.16;99330.62;1682109;85;21733;-72
2022/07/10 08:54:41;;;;;;;5.78;2.00;;;;;;;29.41;40.16;99330.62;1685223;85;21518;-73
2022/07/10 08:57:07;;;;;;;3.15;1.80;;;;;;;29.32;40.50;99333.16;1720769;83;21089;-73
2022/07/10 08:59:34;;;;;;;5.72;1.80;;;;;;;29.29;41.90;99328.14;1720874;83;21573;-72
2022/07/10 09:02:01;;;;;;;5.95;1.67;;;;;;;29.37;42.13;99320.36;1720853;83;21637;-72
2022/07/10 09:04:27;;;;;;;3.72;1.80;;;;;;;29.42;42.34;99325.50;1720619;83;21872;-76
2022/07/10 09:06:55;;;;;;;3.67;1.85;;;;;;;29.44;41.66;99318.00;1720550;83;21130;-72
2022/07/10 09:09:23;;;;;;;8.10;2.20;;;;;;;29.53;41.75;99328.71;1677626;85;21600;-72
2022/07/10 09:11:58;;;;;;;3.77;1.80;;;;;;;29.62;41.71;99322.09;1706717;82;21088;-73
2022/07/10 09:14:28;;;;;;;3.05;1.60;;;;;;;29.62;41.65;99320.73;1690718;83;21070;-74
2022/07/10 09:16:54;;;;;;;2.47;1.47;;;;;;;29.53;40.78;99327.36;1690115;84;22114;-74
2022/07/10 09:19:26;;;;;;;3.75;1.90;;;;;;;29.69;40.78;99327.06;1689853;84;21042;-73
2022/07/10 09:21:57;;;;;;;4.03;2.00;;;;;;;29.92;41.87;99321.33;1690439;84;21944;-72
2022/07/10 09:24:24;;;;;;;4.97;2.00;;;;;;;30.25;41.07;99321.97;1651380;86;21206;-72
2022/07/10 09:27:00;;;;;;;6.70;2.10;;;;;;;30.60;40.10;99314.58;1656588;86;21093;-72
2022/07/10 09:29:27;;;;;;;3.47;1.70;;;;;;;30.92;39.54;99309.39;1666380;85;21109;-73
2022/07/10 09:31:58;;;;;;;2.17;1.62;;;;;;;31.08;39.84;99310.36;1704623;83;21146;-72
2022/07/10 09:34:41;;;;;;;5.47;1.57;;;;;;;31.46;40.08;99310.22;1702955;83;21077;-74
2022/07/10 09:37:23;;;;;;;3.05;1.42;;;;;;;31.63;39.07;99301.06;1684808;82;21051;-73
2022/07/10 09:40:04;;;;;;;4.67;1.90;;;;;;;31.65;38.69;99309.86;1683147;85;21640;-72
2022/07/10 09:42:42;;;;;;;4.65;1.70;;;;;;;31.65;38.54;99300.33;1683656;83;21262;-73
2022/07/10 09:48:00;;;;;;;3.25;1.67;;;;;;;31.88;37.70;99299.30;1781187;79;22635;-73
2022/07/10 09:50:33;;;;;;;2.30;1.37;;;;;;;31.92;37.29;99284.20;1731968;81;21056;-75
2022/07/10 09:53:03;;;;;;;3.47;1.60;;;;;;;31.87;37.36;99289.47;1728908;81;21210;-73
2022/07/10 09:55:34;;;;;;;5.53;1.70;;;;;;;32.00;37.55;99278.23;1746765;80;21049;-73
2022/07/10 09:58:07;;;;;;;5.65;1.47;;;;;;;31.91;37.06;99283.05;1754896;81;20977;-73
2022/07/10 10:00:38;;;;;;;2.60;1.40;;;;;;;31.66;37.39;99282.97;1736984;81;21085;-74
2022/07/10 10:03:08;;;;;;;2.25;1.20;;;;;;;31.52;38.10;99285.72;1718333;83;21025;-73
2022/07/10 10:05:53;;;;;;;2.58;1.40;;;;;;;31.62;37.21;99284.44;1719305;82;21140;-74
2022/07/10 10:08:28;;;;;;;3.95;1.57;;;;;;;31.64;37.05;99286.43;1716526;82;21085;-74
2022/07/10 10:10:57;;;;;;;3.05;1.60;;;;;;;31.80;36.51;99276.42;1724788;82;22157;-75
2022/07/10 10:13:30;;;;;;;2.40;1.50;;;;;;;32.15;36.15;99280.16;1739129;82;21644;-73
2022/07/10 10:15:54;;;;;;;4.72;1.45;;;;;;;32.39;36.28;99273.94;1728182;81;22557;-73
2022/07/10 10:18:23;;;;;;;7.15;1.70;;;;;;;32.53;35.31;99273.86;1729390;82;21229;-74
2022/07/10 10:20:54;;;;;;;6.62;1.67;;;;;;;32.18;33.72;99272.91;1714635;82;22194;-72
2022/07/10 10:23:24;;;;;;;3.02;1.20;;;;;;;31.69;34.67;99277.09;1747368;82;21085;-73
2022/07/10 10:25:56;;;;;;;2.30;1.37;;;;;;;31.54;34.86;99279.55;1748320;81;21061;-72
2022/07/10 10:28:24;;;;;;;2.80;1.27;;;;;;;31.84;35.57;99272.22;1748528;82;21099;-74
2022/07/10 10:30:57;;;;;;;5.45;1.60;;;;;;;32.09;34.82;99271.48;1731469;82;21666;-73
2022/07/10 10:33:40;;;;;;;2.65;1.40;;;;;;;31.96;34.70;99273.23;1709002;82;21059;-73
2022/07/10 10:36:11;;;;;;;3.05;1.40;;;;;;;31.65;35.34;99271.75;1726345;82;21046;-75
2022/07/10 10:38:56;;;;;;;4.62;1.52;;;;;;;31.31;35.10;99266.89;1725345;82;21102;-75
2022/07/10 10:41:27;;;;;;;3.02;1.40;;;;;;;30.90;35.67;99266.12;1746795;82;21041;-74
2022/07/10 10:44:17;;;;;;;4.15;1.25;;;;;;;30.53;36.41;99259.41;1748238;81;21170;-74
2022/07/10 10:47:05;;;;;;;3.50;1.53;;;;;;;30.24;36.54;99261.39;1737869;81;21068;-73
2022/07/10 10:49:56;;;;;;;5.22;1.42;;;;;;;29.98;37.23;99258.59;1682071;85;21863;-74
2022/07/10 10:52:24;;;;;;;8.38;1.75;;;;;;;30.00;38.09;99251.09;1725373;82;21519;-75
2022/07/10 10:55:03;;;;;;;4.22;1.10;;;;;;;30.16;38.33;99248.52;1732796;82;21094;-74
2022/07/10 10:57:39;;;;;;;3.70;1.30;;;;;;;30.22;38.36;99247.72;1734022;82;21581;-73
2022/07/10 11:00:07;;;;;;;1.90;1.20;;;;;;;30.19;37.42;99246.25;1735509;82;21032;-73
2022/07/10 11:02:42;;;;;;;2.53;1.10;;;;;;;30.04;36.75;99241.50;1736233;82;21084;-74
2022/07/10 11:05:18;;;;;;;1.65;0.90;;;;;;;29.92;37.63;99246.69;1729113;82;21086;-73
2022/07/10 11:08:00;;;;;;;2.17;1.00;;;;;;;30.02;37.64;99239.51;1729281;82;21087;-72
2022/07/10 11:10:38;;;;;;;4.97;1.27;;;;;;;30.15;36.13;99246.34;1727997;82;21079;-73
2022/07/10 11:13:17;;;;;;;4.25;1.27;;;;;;;30.15;36.13;99246.34;1739886;82;21028;-73
2022/07/10 11:15:49;;;;;;;1.22;1.05;;;;;;;30.22;35.75;99241.75;1738063;82;21100;-73
2022/07/10 11:18:25;;;;;;;1.40;1.17;;;;;;;30.22;35.52;99246.36;1718611;82;21058;-72
2022/07/10 11:20:55;;;;;;;30.75;23.27;;;;;;;30.06;35.84;99301.86;1718612;82;22154;-73
2022/07/10 11:23:47;;;;;;;15.13;8.60;;;;;;;29.74;36.09;99249.95;1718794;82;21756;-73
2022/07/10 11:26:30;;;;;;;6.67;2.30;;;;;;;29.38;37.01;99255.09;1718339;82;21142;-75
2022/07/10 11:28:59;;;;;;;3.52;1.17;;;;;;;29.24;38.79;99257.38;1718553;82;21551;-75
2022/07/10 11:31:31;;;;;;;3.50;1.67;;;;;;;29.26;38.25;99251.24;1698532;82;21117;-73
2022/07/10 11:33:57;;;;;;;1.77;1.30;;;;;;;29.33;38.77;99252.12;1738555;82;21531;-77
2022/07/10 11:36:26;;;;;;;2.15;1.32;;;;;;;29.49;39.15;99248.24;1732796;82;21120;-74
2022/07/10 11:39:03;;;;;;;4.30;1.45;;;;;;;29.49;37.98;99245.03;1729839;82;21072;-74
2022/07/10 11:41:30;;;;;;;2.65;1.40;;;;;;;29.49;37.98;99245.03;1727378;82;21022;-73
2022/07/10 11:43:58;;;;;;;3.12;1.70;;;;;;;29.48;38.25;99243.34;1741039;82;21107;-73
2022/07/10 11:46:34;;;;;;;3.40;1.30;;;;;;;29.46;38.23;99249.48;1738655;81;21017;-75